createdAt,value
2023-06-07T00:02:01.890Z,16.14
2023-06-07T00:06:06.515Z,15.88
2023-06-07T00:10:10.231Z,15.78
2023-06-07T00:14:15.421Z,15.74
2023-06-07T00:18:21.603Z,15.80
2023-06-07T00:22:24.454Z,15.82
2023-06-07T00:26:27.307Z,15.79
2023-06-07T00:30:32.011Z,15.73
2023-06-07T00:34:34.947Z,15.65
2023-06-07T00:38:37.742Z,15.56
2023-06-07T00:42:40.640Z,15.46
2023-06-07T00:46:45.226Z,15.44
2023-06-07T00:50:48.963Z,15.38
2023-06-07T00:54:52.746Z,15.33
2023-06-07T00:59:04.594Z,15.27
2023-06-07T01:03:10.205Z,15.28
2023-06-07T01:07:13.625Z,15.29
2023-06-07T01:11:17.950Z,15.26
2023-06-07T01:15:21.050Z,15.26
2023-06-07T01:19:30.794Z,15.20
2023-06-07T01:23:38.052Z,15.19
2023-06-07T01:27:44.883Z,15.07
2023-06-07T01:31:51.274Z,15.02
2023-06-07T01:35:59.086Z,15.10
2023-06-07T01:40:06.657Z,14.90
2023-06-07T01:44:12.631Z,14.82
2023-06-07T01:48:16.419Z,14.88
2023-06-07T01:52:19.299Z,14.80
2023-06-07T01:56:38.191Z,14.70
2023-06-07T02:00:48.278Z,14.71
2023-06-07T02:04:56.550Z,14.82
2023-06-07T02:09:05.338Z,14.81
2023-06-07T02:13:21.902Z,14.69
2023-06-07T02:17:25.635Z,14.66
2023-06-07T02:21:28.535Z,14.69
2023-06-07T02:25:31.888Z,14.78
2023-06-07T02:29:36.325Z,14.84
2023-06-07T02:33:39.111Z,14.80
2023-06-07T02:37:42.004Z,14.82
2023-06-07T02:41:44.852Z,14.81
2023-06-07T02:45:49.185Z,14.81
2023-06-07T02:49:52.414Z,14.64
2023-06-07T02:53:55.814Z,14.57
2023-06-07T02:58:00.651Z,14.44
2023-06-07T03:02:09.001Z,14.41
2023-06-07T03:06:12.994Z,14.38
2023-06-07T03:10:16.697Z,14.41
2023-06-07T03:14:20.606Z,14.33
2023-06-07T03:18:26.936Z,14.36
2023-06-07T03:22:37.451Z,14.37
2023-06-07T03:26:44.776Z,14.36
2023-06-07T03:30:49.137Z,14.30
2023-06-07T03:35:08.487Z,14.32
2023-06-07T03:39:19.043Z,14.39
2023-06-07T03:43:23.120Z,14.45
2023-06-07T03:47:26.056Z,14.44
2023-06-07T03:51:33.252Z,14.35
2023-06-07T03:55:43.107Z,14.23
2023-06-07T03:59:47.267Z,14.26
2023-06-07T04:03:51.118Z,14.12
2023-06-07T04:08:00.329Z,14.12
2023-06-07T04:12:06.574Z,14.11
2023-06-07T04:16:10.069Z,14.07
2023-06-07T04:20:15.868Z,14.17
2023-06-07T04:24:21.264Z,14.21
2023-06-07T04:28:26.262Z,14.16
2023-06-07T04:32:34.480Z,14.12
2023-06-07T04:36:38.523Z,14.05
2023-06-07T04:40:50.471Z,14.10
2023-06-07T04:45:04.301Z,14.05
2023-06-07T04:49:08.305Z,14.28
2023-06-07T04:53:22.461Z,14.39
2023-06-07T04:57:29.754Z,14.39
2023-06-07T05:01:36.968Z,14.44
2023-06-07T05:05:42.839Z,14.48
2023-06-07T05:09:54.569Z,14.47
2023-06-07T05:14:02.689Z,14.39
2023-06-07T05:18:13.342Z,14.38
2023-06-07T05:22:35.230Z,14.38
2023-06-07T05:26:38.872Z,14.51
2023-06-07T05:31:14.238Z,14.62
2023-06-07T05:35:47.528Z,14.68
2023-06-07T05:40:21.706Z,14.62
2023-06-07T05:44:56.906Z,14.62
2023-06-07T05:54:19.612Z,14.62
2023-06-07T06:04:29.372Z,15.05
2023-06-07T06:08:59.853Z,15.20
2023-06-07T06:13:26.516Z,15.34
2023-06-07T06:17:55.358Z,15.61
2023-06-07T06:22:23.364Z,15.73
2023-06-07T06:26:47.286Z,15.81
2023-06-07T06:30:52.315Z,15.89
2023-06-07T06:35:21.332Z,16.04
2023-06-07T06:39:49.450Z,16.17
2023-06-07T06:43:59.874Z,16.24
2023-06-07T06:48:04.234Z,16.29
2023-06-07T06:52:07.988Z,16.36
2023-06-07T07:02:09.178Z,16.05
2023-06-07T07:06:27.176Z,15.95
2023-06-07T07:10:30.123Z,16.07
2023-06-07T07:14:34.865Z,16.15
2023-06-07T07:18:40.988Z,16.12
2023-06-07T07:22:47.574Z,16.01
2023-06-07T07:26:51.270Z,15.88
2023-06-07T07:30:54.096Z,15.82
2023-06-07T07:34:57.031Z,15.82
2023-06-07T07:39:08.159Z,15.85
2023-06-07T07:43:11.928Z,15.95
2023-06-07T07:47:14.768Z,16.13
2023-06-07T07:51:18.017Z,16.31
2023-06-07T07:55:24.733Z,16.63
2023-06-07T07:59:27.855Z,16.68
2023-06-07T08:03:31.263Z,16.89
2023-06-07T08:07:34.574Z,16.87
2023-06-07T08:11:39.425Z,16.96
2023-06-07T08:15:42.533Z,17.16
2023-06-07T08:19:45.527Z,17.28
2023-06-07T08:23:48.404Z,17.17
2023-06-07T08:27:52.872Z,17.34
2023-06-07T08:31:59.365Z,17.65
2023-06-07T08:36:02.342Z,17.78
2023-06-07T08:40:07.452Z,18.03
2023-06-07T08:44:12.036Z,18.26
2023-06-07T08:48:15.980Z,18.52
2023-06-07T08:52:18.992Z,18.78
2023-06-07T08:56:23.002Z,18.89
2023-06-07T09:00:27.806Z,19.29
2023-06-07T09:04:31.417Z,19.47
2023-06-07T09:08:35.436Z,19.64
2023-06-07T09:12:38.278Z,19.89
2023-06-07T09:17:01.709Z,20.15
2023-06-07T09:21:20.423Z,20.47
2023-06-07T09:25:23.329Z,20.34
2023-06-07T09:29:28.619Z,20.34
2023-06-07T09:33:35.074Z,20.30
2023-06-07T09:37:48.881Z,20.42
2023-06-07T09:41:52.895Z,20.40
2023-06-07T09:45:56.321Z,20.52
2023-06-07T09:50:09.465Z,20.45
2023-06-07T09:54:54.885Z,20.62
2023-06-07T09:59:27.515Z,20.91
2023-06-07T10:03:57.322Z,21.34
2023-06-07T10:08:02.107Z,21.83
2023-06-07T10:12:07.998Z,22.18
2023-06-07T10:16:13.137Z,22.69
2023-06-07T10:20:37.096Z,23.19
2023-06-07T10:24:53.062Z,23.47
2023-06-07T10:29:07.966Z,23.57
2023-06-07T10:33:11.882Z,23.45
2023-06-07T10:37:15.822Z,23.57
2023-06-07T10:41:20.263Z,23.61
2023-06-07T10:45:24.078Z,23.62
2023-06-07T10:49:39.503Z,23.36
2023-06-07T10:53:55.590Z,23.21
2023-06-07T10:58:01.309Z,23.01
2023-06-07T11:02:24.630Z,23.05
2023-06-07T11:06:29.335Z,23.02
2023-06-07T11:10:36.621Z,23.14
2023-06-07T11:15:02.079Z,23.41
2023-06-07T11:19:09.659Z,23.81
2023-06-07T11:23:26.409Z,23.90
2023-06-07T11:27:29.993Z,23.68
2023-06-07T11:31:34.864Z,23.87
2023-06-07T11:35:39.110Z,23.99
2023-06-07T11:39:42.236Z,23.90
2023-06-07T11:43:47.660Z,24.02
2023-06-07T11:47:54.924Z,24.19
2023-06-07T11:52:00.857Z,24.23
2023-06-07T11:56:04.561Z,24.49
2023-06-07T12:00:13.796Z,24.59
2023-06-07T12:04:22.923Z,24.67
2023-06-07T12:08:32.718Z,24.78
2023-06-07T12:12:35.692Z,25.02
2023-06-07T12:16:40.659Z,25.28
2023-06-07T12:20:48.018Z,25.28
2023-06-07T12:24:50.952Z,25.37
2023-06-07T12:28:54.035Z,25.41
2023-06-07T12:33:00.207Z,25.44
2023-06-07T12:37:05.872Z,25.58
2023-06-07T12:41:10.549Z,25.67
2023-06-07T12:45:13.524Z,25.65
2023-06-07T12:49:16.298Z,25.69
2023-06-07T12:53:25.166Z,25.79
2023-06-07T12:57:33.885Z,25.79
2023-06-07T13:01:36.911Z,26.02
2023-06-07T13:05:41.669Z,26.42
2023-06-07T13:09:45.855Z,26.99
2023-06-07T13:13:49.427Z,27.11
2023-06-07T13:17:52.536Z,27.49
2023-06-07T13:21:56.066Z,27.52
2023-06-07T13:26:00.239Z,27.51
2023-06-07T13:30:04.802Z,27.46
2023-06-07T13:34:08.494Z,27.31
2023-06-07T13:38:17.953Z,27.59
2023-06-07T13:42:25.440Z,27.87
2023-06-07T13:46:28.425Z,28.28
2023-06-07T13:50:32.910Z,28.45
2023-06-07T13:54:36.230Z,28.17
2023-06-07T13:58:43.026Z,27.79
2023-06-07T14:02:47.772Z,27.94
2023-06-07T14:06:52.751Z,28.16
2023-06-07T14:10:58.003Z,28.23
2023-06-07T14:15:06.917Z,28.18
2023-06-07T14:19:10.078Z,27.83
2023-06-07T14:23:12.878Z,27.86
2023-06-07T14:27:16.138Z,27.92
2023-06-07T14:31:27.158Z,28.01
2023-06-07T14:35:46.447Z,27.97
2023-06-07T14:40:18.494Z,27.89
2023-06-07T14:44:33.684Z,27.78
2023-06-07T14:48:38.388Z,27.77
2023-06-07T14:52:42.243Z,27.67
2023-06-07T14:56:45.302Z,27.66
2023-06-07T15:00:50.484Z,27.53
2023-06-07T15:04:54.967Z,27.42
2023-06-07T15:08:58.241Z,27.35
2023-06-07T15:13:01.528Z,27.10
2023-06-07T15:17:12.030Z,27.00
2023-06-07T15:21:50.883Z,26.77
2023-06-07T15:31:10.270Z,26.48
2023-06-07T15:40:30.411Z,26.80
2023-06-07T15:44:33.563Z,26.84
2023-06-07T15:48:36.483Z,26.83
2023-06-07T15:52:40.171Z,26.59
2023-06-07T15:56:44.532Z,26.53
2023-06-07T16:00:49.167Z,26.28
2023-06-07T16:04:52.537Z,26.11
2023-06-07T16:08:55.612Z,26.14
2023-06-07T16:13:00.183Z,26.13
2023-06-07T16:17:05.718Z,26.25
2023-06-07T16:21:09.090Z,26.54
2023-06-07T16:25:13.637Z,26.67
2023-06-07T16:29:19.230Z,26.78
2023-06-07T16:33:23.940Z,26.93
2023-06-07T16:37:27.916Z,27.01
2023-06-07T16:41:31.833Z,26.96
2023-06-07T16:45:36.188Z,26.71
2023-06-07T16:49:39.136Z,26.46
2023-06-07T16:53:42.258Z,26.21
2023-06-07T16:57:46.192Z,25.80
2023-06-07T17:01:51.393Z,25.59
2023-06-07T17:05:55.487Z,25.24
2023-06-07T17:09:58.880Z,25.00
2023-06-07T17:14:01.904Z,24.81
2023-06-07T17:18:07.292Z,24.84
2023-06-07T17:22:11.430Z,24.74
2023-06-07T17:26:31.806Z,24.69
2023-06-07T17:30:40.114Z,24.51
2023-06-07T17:34:44.347Z,24.53
2023-06-07T17:38:49.638Z,24.30
2023-06-07T17:43:08.291Z,24.14
2023-06-07T17:47:13.395Z,24.12
2023-06-07T17:51:38.510Z,24.08
2023-06-07T17:55:42.458Z,24.00
2023-06-07T17:59:45.913Z,23.93
2023-06-07T18:03:48.987Z,23.85
2023-06-07T18:07:55.489Z,23.95
2023-06-07T18:12:01.702Z,23.81
2023-06-07T18:16:26.879Z,23.43
2023-06-07T18:20:54.463Z,23.10
2023-06-07T18:24:58.938Z,22.82
2023-06-07T18:29:01.821Z,22.69
2023-06-07T18:33:06.690Z,22.73
2023-06-07T18:37:55.961Z,22.74
2023-06-07T18:42:29.797Z,22.72
2023-06-07T18:47:09.838Z,22.57
2023-06-07T18:51:23.536Z,22.49
2023-06-07T18:55:38.029Z,22.50
2023-06-07T18:59:42.486Z,22.53
2023-06-07T19:03:53.398Z,22.30
2023-06-07T19:08:15.429Z,22.16
2023-06-07T19:12:39.144Z,21.96
2023-06-07T19:16:53.836Z,21.67
2023-06-07T19:20:59.912Z,21.41
2023-06-07T19:25:05.082Z,21.39
2023-06-07T19:29:20.345Z,21.33
2023-06-07T19:33:29.459Z,21.22
2023-06-07T19:37:34.955Z,21.08
2023-06-07T19:41:40.834Z,20.97
2023-06-07T19:45:44.244Z,20.90
2023-06-07T19:49:50.260Z,20.93
2023-06-07T19:54:20.618Z,20.86
2023-06-07T19:58:37.009Z,20.81
2023-06-07T20:02:52.971Z,20.60
2023-06-07T20:06:59.103Z,20.58
2023-06-07T20:11:02.257Z,20.50
2023-06-07T20:15:07.980Z,20.39
2023-06-07T20:19:11.538Z,20.26
2023-06-07T20:23:16.066Z,20.04
2023-06-07T20:27:19.198Z,19.99
2023-06-07T20:31:23.039Z,19.98
2023-06-07T20:35:32.695Z,19.86
2023-06-07T20:39:46.110Z,19.75
2023-06-07T20:43:49.247Z,19.61
2023-06-07T20:47:52.692Z,19.50
2023-06-07T20:51:57.387Z,19.44
2023-06-07T20:56:01.679Z,19.44
2023-06-07T21:00:07.096Z,19.27
2023-06-07T21:04:10.839Z,19.21
2023-06-07T21:08:26.497Z,19.03
2023-06-07T21:12:54.711Z,18.96
2023-06-07T21:17:22.635Z,18.80
2023-06-07T21:21:42.569Z,18.73
2023-06-07T21:25:46.356Z,18.68
2023-06-07T21:29:51.802Z,18.63
2023-06-07T21:34:01.162Z,18.60
2023-06-07T21:38:17.536Z,18.51
2023-06-07T21:42:51.453Z,18.40
2023-06-07T21:52:30.650Z,18.22
2023-06-07T21:57:01.721Z,18.12
2023-06-07T22:01:26.561Z,18.00
2023-06-07T22:05:35.343Z,17.94
2023-06-07T22:09:39.725Z,17.89
2023-06-07T22:13:45.684Z,17.88
2023-06-07T22:17:54.645Z,17.90
2023-06-07T22:21:57.672Z,17.87
2023-06-07T22:26:02.118Z,17.87
2023-06-07T22:30:18.855Z,17.84
2023-06-07T22:34:45.830Z,17.75
2023-06-07T22:39:10.220Z,17.60
2023-06-07T22:43:26.472Z,17.60
2023-06-07T22:47:35.727Z,17.61
2023-06-07T22:51:41.913Z,17.62
2023-06-07T22:55:47.320Z,17.56
2023-06-07T22:59:53.275Z,17.52
2023-06-07T23:03:56.727Z,17.51
2023-06-07T23:08:00.731Z,17.42
2023-06-07T23:12:05.982Z,17.37
2023-06-07T23:16:10.117Z,17.34
2023-06-07T23:20:13.911Z,17.29
2023-06-07T23:24:22.270Z,17.26
2023-06-07T23:28:25.109Z,17.24
2023-06-07T23:32:30.789Z,17.13
2023-06-07T23:36:33.969Z,17.09
2023-06-07T23:40:37.502Z,17.07
2023-06-07T23:44:40.268Z,17.01
2023-06-07T23:48:45.232Z,16.83
2023-06-07T23:52:49.579Z,16.69
2023-06-07T23:56:52.572Z,16.64
